チューク諸島 の空港の天気 - METARとTAF

チューク国際空港 ( PTKK / TKK ) - ミクロネシア連邦 チューク諸島
飛行場実況気象(Metar)
観測時間08/08 12:54 +10 (08/08 02:54 UTC)
風向・風速北北東 4m/s
視程10km以上
天気現象
少しの雲 雲底高度 430m
全天の4割程度の雲 雲底高度 3660m
全天を覆う雲 雲底高度 8530m
気温30.6℃
湿度83%
気圧1009.3hPa
METARPTKK 080254Z 02007KT 15SM FEW014 SCT120 OVC280 31/27 A2980 RMK SLP093 8/171 T03060273 57019
過去の天気等 Google飛行場航空写真 Wunderground天気予報

過去48時間のMETAR

飛行場予報(TAF)
発表時間: 8/08 09:30 +10 (8/07 23:30 UTC)
予報対象時間: 8日10時 +10 ~ 9日10時 +10
風向・風速東北東 7m/s
視程10km以上
天気現象周辺でしゅう雨
全天の4割程度の雲 雲底高度 490m
全天の4割程度の雲 雲底高度 1220m
全天の8割程度の雲 雲底高度 3050m
8日10時 +10 ~ 8日11時 +10 に一時的に
風向・風速北東 9m/s
視程4830m
天気現象強いしゅう雨
全天の8割程度の雲 雲底高度 430m
全天を覆う雲 雲底高度 910m
PTKK 072330Z 0800/0824 06013KT P6SM VCSH SCT016 SCT040 BKN100
TEMPO 0800/0801 05018KT 3SM +SHRA BKN014 OVC030